createdAt,value
2024-01-19T00:01:19.472Z,5.28
2024-01-19T00:03:59.292Z,5.49
2024-01-19T00:06:38.601Z,5.33
2024-01-19T00:09:23.414Z,5.18
2024-01-19T00:12:02.762Z,5.44
2024-01-19T00:14:42.688Z,5.00
2024-01-19T00:17:21.998Z,5.19
2024-01-19T00:20:01.409Z,5.66
2024-01-19T00:22:40.704Z,5.37
2024-01-19T00:25:25.395Z,5.50
2024-01-19T00:28:04.659Z,5.73
2024-01-19T00:30:43.926Z,5.66
2024-01-19T00:33:23.253Z,5.55
2024-01-19T00:36:02.806Z,5.79
2024-01-19T00:38:42.178Z,5.58
2024-01-19T00:41:28.599Z,5.90
2024-01-19T00:44:07.910Z,7.68
2024-01-19T00:46:47.303Z,6.19
2024-01-19T00:49:26.663Z,6.84
2024-01-19T00:52:05.981Z,6.52
2024-01-19T00:54:45.480Z,6.60
2024-01-19T00:57:29.900Z,5.81
2024-01-19T01:00:09.247Z,5.88
2024-01-19T01:02:48.531Z,5.63
2024-01-19T01:05:28.025Z,6.18
2024-01-19T01:08:08.063Z,6.45
2024-01-19T01:10:47.667Z,6.44
2024-01-19T01:13:32.152Z,5.94
2024-01-19T01:16:11.786Z,5.94
2024-01-19T01:18:51.155Z,8.23
2024-01-19T01:21:30.450Z,9.14
2024-01-19T01:24:09.784Z,6.32
2024-01-19T01:26:49.166Z,6.06
2024-01-19T01:29:33.616Z,6.24
2024-01-19T01:32:13.629Z,6.10
2024-01-19T01:34:52.977Z,6.04
2024-01-19T01:37:32.268Z,6.08
2024-01-19T01:40:13.223Z,6.24
2024-01-19T01:42:52.791Z,6.17
2024-01-19T01:45:37.556Z,5.76
2024-01-19T01:48:17.084Z,6.37
2024-01-19T01:50:57.276Z,6.44
2024-01-19T01:53:36.719Z,6.41
2024-01-19T01:56:16.387Z,6.40
2024-01-19T01:58:55.726Z,6.51
2024-01-19T02:01:40.884Z,6.58
2024-01-19T02:04:21.035Z,6.57
2024-01-19T02:07:00.844Z,7.06
2024-01-19T02:09:41.385Z,6.66
2024-01-19T02:12:20.962Z,5.79
2024-01-19T02:15:00.301Z,5.76
2024-01-19T02:17:44.964Z,5.79
2024-01-19T02:20:24.448Z,5.57
2024-01-19T02:23:03.934Z,5.78
2024-01-19T02:25:48.569Z,5.68
2024-01-19T02:28:29.225Z,5.58
2024-01-19T02:31:08.496Z,5.65
2024-01-19T02:33:47.791Z,5.72
2024-01-19T02:36:27.195Z,5.51
2024-01-19T02:39:07.556Z,5.49
2024-01-19T02:41:52.143Z,6.05
2024-01-19T02:44:31.506Z,5.72
2024-01-19T02:47:10.989Z,5.17
2024-01-19T02:49:50.342Z,5.32
2024-01-19T02:52:29.756Z,5.57
2024-01-19T02:55:09.576Z,5.32
2024-01-19T02:57:53.919Z,5.63
2024-01-19T03:00:33.341Z,5.35
2024-01-19T03:03:13.222Z,5.60
2024-01-19T03:05:52.560Z,5.85
2024-01-19T03:08:32.159Z,5.68
2024-01-19T03:11:11.670Z,5.90
2024-01-19T03:13:56.282Z,6.14
2024-01-19T03:16:35.699Z,5.66
2024-01-19T03:19:15.007Z,6.01
2024-01-19T03:21:54.357Z,5.78
2024-01-19T03:24:33.741Z,5.60
2024-01-19T03:27:13.339Z,5.82
2024-01-19T03:29:57.940Z,5.59
2024-01-19T03:32:37.316Z,5.87
2024-01-19T03:35:16.951Z,6.07
2024-01-19T03:37:56.257Z,5.60
2024-01-19T03:40:35.556Z,6.08
2024-01-19T03:43:15.669Z,5.82
2024-01-19T03:45:59.981Z,6.04
2024-01-19T03:48:42.621Z,6.00
2024-01-19T03:51:21.981Z,6.67
2024-01-19T03:54:01.329Z,6.29
2024-01-19T03:56:40.697Z,6.18
2024-01-19T03:59:20.364Z,6.63
2024-01-19T04:02:07.294Z,6.87
2024-01-19T04:04:46.736Z,7.72
2024-01-19T04:07:26.181Z,7.71
2024-01-19T04:10:06.316Z,6.78
2024-01-19T04:12:45.638Z,6.44
2024-01-19T04:15:24.926Z,6.24
2024-01-19T04:18:09.531Z,6.40
2024-01-19T04:20:48.972Z,6.17
2024-01-19T04:23:28.334Z,6.03
2024-01-19T04:26:07.881Z,6.74
2024-01-19T04:28:47.289Z,7.75
2024-01-19T04:31:26.560Z,7.14
2024-01-19T04:34:11.296Z,7.09
2024-01-19T04:36:50.643Z,7.12
2024-01-19T04:39:29.940Z,8.55
2024-01-19T04:42:10.220Z,11.00
2024-01-19T04:44:49.541Z,8.73
2024-01-19T04:47:29.096Z,6.75
2024-01-19T04:50:14.920Z,6.58
2024-01-19T04:52:54.213Z,6.21
2024-01-19T04:55:33.513Z,6.29
2024-01-19T04:58:12.875Z,6.22
2024-01-19T05:00:52.200Z,6.53
2024-01-19T05:03:31.540Z,6.97
2024-01-19T05:06:16.186Z,6.94
2024-01-19T05:08:55.579Z,6.56
2024-01-19T05:11:34.994Z,6.68
2024-01-19T05:14:14.393Z,6.38
2024-01-19T05:16:53.685Z,6.38
2024-01-19T05:19:33.039Z,6.26
2024-01-19T05:22:17.513Z,6.55
2024-01-19T05:24:57.833Z,7.05
2024-01-19T05:27:37.159Z,6.75
2024-01-19T05:30:17.907Z,6.70
2024-01-19T05:32:57.435Z,6.95
2024-01-19T05:35:36.934Z,7.33
2024-01-19T05:38:21.305Z,7.26
2024-01-19T05:41:00.657Z,9.49
2024-01-19T05:43:41.219Z,8.02
2024-01-19T05:46:20.670Z,6.89
2024-01-19T05:49:00.087Z,7.98
2024-01-19T05:51:39.621Z,7.31
2024-01-19T05:54:23.998Z,7.68
2024-01-19T05:57:03.391Z,6.60
2024-01-19T05:59:43.126Z,6.78
2024-01-19T06:02:22.753Z,7.00
2024-01-19T06:05:02.140Z,7.67
2024-01-19T06:07:41.714Z,8.63
2024-01-19T06:10:26.765Z,7.55
2024-01-19T06:13:06.142Z,7.39
2024-01-19T06:15:45.522Z,11.63
2024-01-19T06:18:25.215Z,7.65
2024-01-19T06:21:05.226Z,6.83
2024-01-19T06:23:45.416Z,7.18
2024-01-19T06:26:34.614Z,7.05
2024-01-19T06:29:14.014Z,6.95
2024-01-19T06:31:54.358Z,6.93
2024-01-19T06:34:33.797Z,6.57
2024-01-19T06:37:13.161Z,6.43
2024-01-19T06:39:54.163Z,6.74
2024-01-19T06:42:38.660Z,6.95
2024-01-19T06:45:19.004Z,6.61
2024-01-19T06:47:58.409Z,6.55
2024-01-19T06:50:37.803Z,6.37
2024-01-19T06:53:17.104Z,6.50
2024-01-19T06:55:56.624Z,6.68
2024-01-19T06:58:52.900Z,6.76
2024-01-19T07:01:32.191Z,6.83
2024-01-19T07:04:11.978Z,6.41
2024-01-19T07:06:51.414Z,6.94
2024-01-19T07:09:31.465Z,6.76
2024-01-19T07:12:11.443Z,7.03
2024-01-19T07:14:55.899Z,6.81
2024-01-19T07:17:35.327Z,7.09
2024-01-19T07:20:16.396Z,6.57
2024-01-19T07:22:55.753Z,7.83
2024-01-19T07:25:35.576Z,8.53
2024-01-19T07:28:14.887Z,8.38
2024-01-19T07:30:59.368Z,7.56
2024-01-19T07:33:38.803Z,6.43
2024-01-19T07:36:20.919Z,6.54
2024-01-19T07:39:00.622Z,6.48
2024-01-19T07:41:40.099Z,6.27
2024-01-19T07:44:19.565Z,6.08
2024-01-19T07:47:04.034Z,6.34
2024-01-19T07:49:43.404Z,6.08
2024-01-19T07:52:22.776Z,6.01
2024-01-19T07:55:02.146Z,6.04
2024-01-19T07:57:41.480Z,6.15
2024-01-19T08:00:21.790Z,5.39
2024-01-19T08:03:06.924Z,5.47
2024-01-19T08:05:46.408Z,5.32
2024-01-19T08:08:25.738Z,5.53
2024-01-19T08:11:05.067Z,5.47
2024-01-19T08:13:44.358Z,5.50
2024-01-19T08:16:23.714Z,5.72
2024-01-19T08:19:08.377Z,7.71
2024-01-19T08:21:50.628Z,13.30
2024-01-19T08:24:29.901Z,6.92
2024-01-19T08:27:10.245Z,5.79
2024-01-19T08:29:49.583Z,6.00
2024-01-19T08:32:31.205Z,5.71
2024-01-19T08:35:15.861Z,6.01
2024-01-19T08:37:55.192Z,5.50
2024-01-19T08:40:34.524Z,5.51
2024-01-19T08:43:13.839Z,5.23
2024-01-19T08:45:53.424Z,4.95
2024-01-19T08:48:32.872Z,5.00
2024-01-19T08:51:17.415Z,4.81
2024-01-19T08:53:56.882Z,4.72
2024-01-19T08:56:40.866Z,4.62
2024-01-19T08:59:25.593Z,4.44
2024-01-19T09:02:04.913Z,4.27
2024-01-19T09:04:44.479Z,4.38
2024-01-19T09:07:28.967Z,4.62
2024-01-19T09:10:08.363Z,4.36
2024-01-19T09:12:47.675Z,4.55
2024-01-19T09:15:27.008Z,4.50
2024-01-19T09:18:06.358Z,4.33
2024-01-19T09:20:45.775Z,4.07
2024-01-19T09:23:30.192Z,4.14
2024-01-19T09:26:09.476Z,3.78
2024-01-19T09:28:48.781Z,4.23
2024-01-19T09:31:28.232Z,4.07
2024-01-19T09:34:07.634Z,4.10
2024-01-19T09:36:47.809Z,4.03
2024-01-19T09:39:32.196Z,4.19
2024-01-19T09:42:15.736Z,4.08
2024-01-19T09:45:09.947Z,4.45
2024-01-19T09:48:05.038Z,4.37
2024-01-19T09:50:45.043Z,4.04
2024-01-19T09:53:30.280Z,4.08
2024-01-19T09:56:14.759Z,3.80
2024-01-19T09:58:58.318Z,3.65
2024-01-19T10:01:38.722Z,3.59
2024-01-19T10:04:21.928Z,3.58
2024-01-19T10:07:03.879Z,3.38
2024-01-19T10:09:43.989Z,3.42
2024-01-19T10:12:31.011Z,3.01
2024-01-19T10:15:10.551Z,2.87
2024-01-19T10:17:51.426Z,3.21
2024-01-19T10:20:30.744Z,2.84
2024-01-19T10:23:28.946Z,2.80
2024-01-19T10:26:21.312Z,2.72
2024-01-19T10:29:05.701Z,2.64
2024-01-19T10:31:46.091Z,2.35
2024-01-19T10:34:29.292Z,2.44
2024-01-19T10:37:08.769Z,2.46
2024-01-19T10:39:48.077Z,2.39
2024-01-19T10:42:27.421Z,2.34
2024-01-19T10:45:23.249Z,2.69
2024-01-19T10:48:05.820Z,2.54
2024-01-19T10:50:45.201Z,2.54
2024-01-19T10:53:25.298Z,2.59
2024-01-19T10:56:05.127Z,2.62
2024-01-19T10:58:44.403Z,2.46
2024-01-19T11:01:29.291Z,2.60
2024-01-19T11:04:09.705Z,2.63
2024-01-19T11:06:49.208Z,2.64
2024-01-19T11:09:28.770Z,2.65
2024-01-19T11:12:13.227Z,3.45
2024-01-19T11:14:53.999Z,2.78
2024-01-19T11:17:38.924Z,6.32
2024-01-19T11:20:19.449Z,5.26
2024-01-19T11:22:59.918Z,10.61
2024-01-19T11:25:55.568Z,5.87
2024-01-19T11:28:44.051Z,5.09
2024-01-19T11:31:27.595Z,4.11
2024-01-19T11:34:12.161Z,4.28
2024-01-19T11:36:56.147Z,3.29
2024-01-19T11:39:49.101Z,2.87
2024-01-19T11:42:53.658Z,2.36
2024-01-19T11:45:49.979Z,2.67
2024-01-19T11:48:48.220Z,2.95
2024-01-19T11:51:44.647Z,2.77
2024-01-19T11:54:34.610Z,2.82
2024-01-19T11:57:26.841Z,2.73
2024-01-19T12:00:08.239Z,2.95
2024-01-19T12:02:47.859Z,4.08
2024-01-19T12:05:28.248Z,3.55
2024-01-19T12:08:14.195Z,3.21
2024-01-19T12:10:53.903Z,3.17
2024-01-19T12:13:33.350Z,3.81
2024-01-19T12:16:13.729Z,3.56
2024-01-19T12:18:54.093Z,3.81
2024-01-19T12:21:34.173Z,4.58
2024-01-19T12:24:18.757Z,3.78
2024-01-19T12:26:58.321Z,4.24
2024-01-19T12:29:38.668Z,5.22
2024-01-19T12:32:19.617Z,4.73
2024-01-19T12:35:06.047Z,4.64
2024-01-19T12:37:45.991Z,4.85
2024-01-19T12:40:30.971Z,3.56
2024-01-19T12:43:12.029Z,4.04
2024-01-19T12:45:51.318Z,4.02
2024-01-19T12:48:35.344Z,3.12
2024-01-19T12:51:17.835Z,3.52
2024-01-19T12:54:02.385Z,3.54
2024-01-19T12:56:46.831Z,3.10
2024-01-19T12:59:31.016Z,2.96
2024-01-19T13:02:10.619Z,2.91
2024-01-19T13:04:49.971Z,2.67
2024-01-19T13:07:30.849Z,2.45
2024-01-19T13:10:10.993Z,2.51
2024-01-19T13:12:55.985Z,2.87
2024-01-19T13:15:39.751Z,3.03
2024-01-19T13:18:20.618Z,2.67
2024-01-19T13:20:59.992Z,3.00
2024-01-19T13:23:39.314Z,3.09
2024-01-19T13:26:27.129Z,2.79
2024-01-19T13:29:11.671Z,2.53
2024-01-19T13:31:51.301Z,2.80
2024-01-19T13:34:31.050Z,2.43
2024-01-19T13:37:10.673Z,2.71
2024-01-19T13:39:50.279Z,2.54
2024-01-19T13:42:30.029Z,2.46
2024-01-19T13:45:15.713Z,2.24
2024-01-19T13:47:55.196Z,2.48
2024-01-19T13:50:34.611Z,2.10
2024-01-19T13:53:14.000Z,2.29
2024-01-19T13:55:53.417Z,1.89
2024-01-19T13:58:32.840Z,2.09
2024-01-19T14:01:19.453Z,1.66
2024-01-19T14:04:00.105Z,2.11
2024-01-19T14:06:40.041Z,2.05
2024-01-19T14:09:20.406Z,1.90
2024-01-19T14:12:00.234Z,2.02
2024-01-19T14:14:39.913Z,2.09
2024-01-19T14:17:25.580Z,2.25
2024-01-19T14:20:04.876Z,2.34
2024-01-19T14:22:44.477Z,2.06
2024-01-19T14:25:23.814Z,2.01
2024-01-19T14:28:03.183Z,1.99
2024-01-19T14:30:43.479Z,1.78
2024-01-19T14:33:28.379Z,1.78
2024-01-19T14:36:07.963Z,1.78
2024-01-19T14:38:47.285Z,1.78
2024-01-19T14:41:26.584Z,2.36
2024-01-19T14:44:06.626Z,2.78
2024-01-19T14:46:46.166Z,3.04
2024-01-19T14:49:37.711Z,3.27
2024-01-19T14:52:18.692Z,2.85
2024-01-19T14:55:00.652Z,3.15
2024-01-19T14:57:40.065Z,2.79
2024-01-19T15:00:21.203Z,2.64
2024-01-19T15:03:01.111Z,2.29
2024-01-19T15:05:46.319Z,2.28
2024-01-19T15:08:25.628Z,2.21
2024-01-19T15:11:05.018Z,2.19
2024-01-19T15:13:45.124Z,2.04
2024-01-19T15:16:24.598Z,2.19
2024-01-19T15:19:04.058Z,1.96
2024-01-19T15:21:48.476Z,1.91
2024-01-19T15:24:27.882Z,1.90
2024-01-19T15:27:07.268Z,2.07
2024-01-19T15:29:46.577Z,2.04
2024-01-19T15:32:26.000Z,2.34
2024-01-19T15:35:05.415Z,2.34
2024-01-19T15:37:49.805Z,2.45
2024-01-19T15:40:29.161Z,2.36
2024-01-19T15:43:08.478Z,2.42
2024-01-19T15:45:48.205Z,2.37
2024-01-19T15:48:27.839Z,2.04
2024-01-19T15:51:07.172Z,5.19
2024-01-19T15:53:54.930Z,10.68
2024-01-19T15:56:37.858Z,2.34
2024-01-19T15:59:18.105Z,2.85
2024-01-19T16:01:57.918Z,2.70
2024-01-19T16:04:37.490Z,2.50
2024-01-19T16:07:16.979Z,2.14
2024-01-19T16:10:01.328Z,2.14
2024-01-19T16:12:40.636Z,2.18
2024-01-19T16:15:21.059Z,2.13
2024-01-19T16:18:00.768Z,2.17
2024-01-19T16:20:40.703Z,4.75
2024-01-19T16:23:20.076Z,6.84
2024-01-19T16:26:04.471Z,3.78
2024-01-19T16:28:43.826Z,3.78
2024-01-19T16:31:23.229Z,3.90
2024-01-19T16:34:04.603Z,4.11
2024-01-19T16:36:47.209Z,3.35
2024-01-19T16:39:26.541Z,2.22
2024-01-19T16:42:11.931Z,2.16
2024-01-19T16:44:51.300Z,2.39
2024-01-19T16:47:31.432Z,2.67
2024-01-19T16:50:11.216Z,2.37
2024-01-19T16:52:50.630Z,2.00
2024-01-19T16:55:29.978Z,2.22
2024-01-19T16:58:15.271Z,1.95
2024-01-19T17:00:54.613Z,1.76
2024-01-19T17:03:34.528Z,2.05
2024-01-19T17:06:14.441Z,1.96
2024-01-19T17:08:53.766Z,2.20
2024-01-19T17:11:33.253Z,2.23
2024-01-19T17:14:17.750Z,2.13
2024-01-19T17:16:57.110Z,2.17
2024-01-19T17:19:36.432Z,2.13
2024-01-19T17:22:15.746Z,2.36
2024-01-19T17:24:55.548Z,2.24
2024-01-19T17:27:34.869Z,2.59
2024-01-19T17:30:21.969Z,2.57
2024-01-19T17:33:01.568Z,2.63
2024-01-19T17:35:41.018Z,2.26
2024-01-19T17:38:20.615Z,2.43
2024-01-19T17:41:00.005Z,2.57
2024-01-19T17:43:40.396Z,2.42
2024-01-19T17:46:25.403Z,2.77
2024-01-19T17:49:05.007Z,2.59
2024-01-19T17:51:44.376Z,3.16
2024-01-19T17:54:24.283Z,5.23
2024-01-19T17:57:03.765Z,12.30
2024-01-19T17:59:45.095Z,5.96
2024-01-19T18:02:29.406Z,4.06
2024-01-19T18:05:08.977Z,4.21
2024-01-19T18:07:49.125Z,4.36
2024-01-19T18:10:29.095Z,4.40
2024-01-19T18:13:08.984Z,4.49
2024-01-19T18:15:48.823Z,4.80
2024-01-19T18:18:36.378Z,8.84
2024-01-19T18:21:16.736Z,3.74
2024-01-19T18:23:56.490Z,3.05
2024-01-19T18:26:37.034Z,2.93
2024-01-19T18:29:16.393Z,2.29
2024-01-19T18:31:56.358Z,2.20
2024-01-19T18:34:40.729Z,2.36
2024-01-19T18:37:20.192Z,5.13
2024-01-19T18:40:00.695Z,6.76
2024-01-19T18:42:40.923Z,3.13
2024-01-19T18:45:21.257Z,2.67
2024-01-19T18:48:01.071Z,2.77
2024-01-19T18:50:45.485Z,6.22
2024-01-19T18:53:24.831Z,3.06
2024-01-19T18:56:04.215Z,2.36
2024-01-19T18:58:45.411Z,2.39
2024-01-19T19:01:24.846Z,2.22
2024-01-19T19:04:04.352Z,2.65
2024-01-19T19:06:49.036Z,2.95
2024-01-19T19:09:30.153Z,2.33
2024-01-19T19:12:09.469Z,2.06
2024-01-19T19:14:48.952Z,2.26
2024-01-19T19:17:28.781Z,2.15
2024-01-19T19:20:09.583Z,2.11
2024-01-19T19:22:54.042Z,2.09
2024-01-19T19:25:34.840Z,2.59
2024-01-19T19:28:14.692Z,2.30
2024-01-19T19:30:53.974Z,2.31
2024-01-19T19:33:33.576Z,2.57
2024-01-19T19:36:14.859Z,2.74
2024-01-19T19:39:00.186Z,3.24
2024-01-19T19:41:39.452Z,5.16
2024-01-19T19:44:19.194Z,4.47
2024-01-19T19:46:58.616Z,3.41
2024-01-19T19:49:39.324Z,3.30
2024-01-19T19:52:18.720Z,3.14
2024-01-19T19:55:03.179Z,3.14
2024-01-19T19:57:43.419Z,2.73
2024-01-19T20:00:23.525Z,2.91
2024-01-19T20:03:02.826Z,3.29
2024-01-19T20:05:42.199Z,3.34
2024-01-19T20:08:22.384Z,2.88
2024-01-19T20:11:07.863Z,2.96
2024-01-19T20:13:47.488Z,2.94
2024-01-19T20:16:28.101Z,3.05
2024-01-19T20:19:07.644Z,3.16
2024-01-19T20:21:46.999Z,2.95
2024-01-19T20:24:26.314Z,3.17
2024-01-19T20:27:11.942Z,3.08
2024-01-19T20:29:53.676Z,3.30
2024-01-19T20:32:33.231Z,3.47
2024-01-19T20:35:13.549Z,3.58
2024-01-19T20:37:55.830Z,4.31
2024-01-19T20:40:35.975Z,4.45
2024-01-19T20:43:20.368Z,4.12
2024-01-19T20:45:59.654Z,3.97
2024-01-19T20:48:39.073Z,3.59
2024-01-19T20:51:18.629Z,3.28
2024-01-19T20:53:57.948Z,3.33
2024-01-19T20:56:37.401Z,3.39
2024-01-19T20:59:23.032Z,3.48
2024-01-19T21:02:05.282Z,3.50
2024-01-19T21:04:44.882Z,3.58
2024-01-19T21:07:24.384Z,3.60
2024-01-19T21:10:03.982Z,3.82
2024-01-19T21:12:44.801Z,6.29
2024-01-19T21:15:31.085Z,8.37
2024-01-19T21:18:11.062Z,6.52
2024-01-19T21:20:50.665Z,7.29
2024-01-19T21:23:30.053Z,6.04
2024-01-19T21:26:09.704Z,4.97
2024-01-19T21:28:49.034Z,5.53
2024-01-19T21:31:33.599Z,5.24
2024-01-19T21:34:12.945Z,4.38
2024-01-19T21:36:52.317Z,3.95
2024-01-19T21:39:31.788Z,4.58
2024-01-19T21:42:11.715Z,4.59
2024-01-19T21:44:51.532Z,4.68
2024-01-19T21:47:36.124Z,4.70
2024-01-19T21:50:17.016Z,4.37
2024-01-19T21:52:57.037Z,4.15
2024-01-19T21:55:36.921Z,4.22
2024-01-19T21:58:16.855Z,4.05
2024-01-19T22:00:56.659Z,4.25
2024-01-19T22:03:41.206Z,4.18
2024-01-19T22:06:20.700Z,4.29
2024-01-19T22:09:00.316Z,4.87
2024-01-19T22:11:47.073Z,5.28
2024-01-19T22:14:33.743Z,4.70
2024-01-19T22:17:13.188Z,5.05
2024-01-19T22:19:58.349Z,4.92
2024-01-19T22:22:37.690Z,4.92
2024-01-19T22:25:17.320Z,5.32
2024-01-19T22:27:56.660Z,5.65
2024-01-19T22:30:37.727Z,6.06
2024-01-19T22:33:17.127Z,6.23
2024-01-19T22:36:07.736Z,6.68
2024-01-19T22:38:54.383Z,6.53
2024-01-19T22:41:34.300Z,6.14
2024-01-19T22:44:16.097Z,6.50
2024-01-19T22:46:55.753Z,6.54
2024-01-19T22:49:35.264Z,5.70
2024-01-19T22:52:22.128Z,5.39
2024-01-19T22:55:02.018Z,5.43
2024-01-19T22:57:41.635Z,5.37
2024-01-19T23:00:25.154Z,5.48
2024-01-19T23:03:04.502Z,6.02
2024-01-19T23:05:43.859Z,6.56
2024-01-19T23:08:28.379Z,9.35
2024-01-19T23:11:07.781Z,7.71
2024-01-19T23:13:47.252Z,8.96
2024-01-19T23:16:26.982Z,9.34
2024-01-19T23:19:11.265Z,7.60
2024-01-19T23:21:56.612Z,5.18
2024-01-19T23:24:41.305Z,5.29
2024-01-19T23:27:20.997Z,5.58
2024-01-19T23:30:00.507Z,4.90
2024-01-19T23:32:40.246Z,4.60
2024-01-19T23:35:19.719Z,4.49
2024-01-19T23:37:59.409Z,4.41
2024-01-19T23:40:43.844Z,4.66
2024-01-19T23:43:23.588Z,6.59
2024-01-19T23:46:02.904Z,6.46
2024-01-19T23:48:42.216Z,5.97
2024-01-19T23:51:21.654Z,4.51
2024-01-19T23:54:01.562Z,4.73
2024-01-19T23:56:45.892Z,4.17
2024-01-19T23:59:25.189Z,4.32
